Time;durP1;ratioP1;P1;durP2;ratioP2;P2;SDS_P1;SDS_P2;PMS_P1;PMS_P2;Temp;Humidity;BMP_temperature;BMP_pressure;BME280_temperature;BME280_humidity;BME280_pressure;Samples;Min_cycle;Max_cycle;Signal;HPM_P1;HPM_P2
2022/06/16 00:00:36;;;;;;;;;16.00;15.60;;;;;20.71;49.23;99039.06;6168070;28;99419;-76
2022/06/16 00:03:42;;;;;;;;;18.00;17.00;;;;;20.80;49.24;99060.38;6187120;28;96745;-75
2022/06/16 00:06:46;;;;;;;;;18.25;16.25;;;;;20.74;49.66;99065.06;6169255;28;98227;-74
2022/06/16 00:09:49;;;;;;;;;16.00;15.00;;;;;20.68;50.11;99064.25;6161155;28;97856;-76
2022/06/16 00:12:52;;;;;;;;;15.00;14.60;;;;;20.66;50.05;99057.44;6182234;28;96811;-73
2022/06/16 00:15:57;;;;;;;;;16.00;15.00;;;;;20.59;49.99;99048.72;6187423;28;97143;-73
2022/06/16 00:19:00;;;;;;;;;18.00;16.25;;;;;20.54;50.29;99055.03;6206443;27;97037;-73
2022/06/16 00:22:04;;;;;;;;;17.00;16.00;;;;;20.45;50.64;99053.19;6245764;27;98154;-73
2022/06/16 00:25:10;;;;;;;;;16.80;15.80;;;;;20.27;50.91;99051.88;6233165;27;99569;-73
2022/06/16 00:28:16;;;;;;;;;14.50;14.25;;;;;20.24;51.44;99053.22;6238118;27;97764;-73
2022/06/16 00:31:24;;;;;;;;;15.00;14.20;;;;;20.20;51.52;99048.59;6244024;27;98047;-73
2022/06/16 00:34:28;;;;;;;;;15.00;14.00;;;;;20.17;51.50;99051.91;6258338;27;97329;-76
2022/06/16 00:37:31;;;;;;;;;17.60;16.60;;;;;20.10;51.91;99045.91;6263442;27;96989;-73
2022/06/16 00:40:35;;;;;;;;;15.20;14.80;;;;;20.00;51.74;99035.00;6257350;27;98646;-76
2022/06/16 00:43:39;;;;;;;;;15.00;14.00;;;;;20.06;51.71;99042.91;6233860;27;96756;-77
2022/06/16 00:46:43;;;;;;;;;17.00;16.00;;;;;20.02;52.41;99047.31;6231802;27;96521;-76
2022/06/16 00:49:48;;;;;;;;;18.00;16.00;;;;;19.97;52.44;99041.84;6244635;27;97311;-73
2022/06/16 00:52:52;;;;;;;;;15.00;15.00;;;;;19.79;52.51;99023.31;6242721;27;96806;-75
2022/06/16 00:55:56;;;;;;;;;16.40;14.40;;;;;19.69;53.25;99028.81;6227869;27;96712;-76
2022/06/16 00:59:05;;;;;;;;;19.00;16.00;;;;;19.46;53.04;98998.22;6247937;27;99065;-73
2022/06/16 01:02:11;;;;;;;;;16.60;15.00;;;;;19.68;53.13;99032.63;6253233;27;97446;-75
2022/06/16 01:05:14;;;;;;;;;14.60;13.60;;;;;19.68;53.12;99022.53;6242616;27;96857;-76
2022/06/16 01:08:17;;;;;;;;;16.00;15.00;;;;;19.68;53.03;99021.69;6243608;27;98173;-76
2022/06/16 01:15:27;;;;;;;;;15.00;14.00;;;;;19.62;53.29;99017.34;6254718;27;98253;-76
2022/06/16 01:18:47;;;;;;;;;15.75;14.75;;;;;19.58;53.39;99013.53;6250235;27;97496;-76
2022/06/16 01:21:57;;;;;;;;;15.00;13.00;;;;;19.51;53.54;99022.00;6251960;27;97525;-73
2022/06/16 01:25:13;;;;;;;;;15.60;14.60;;;;;19.48;53.86;99024.47;6224776;27;97815;-76
2022/06/16 01:28:24;;;;;;;;;14.00;13.00;;;;;19.45;54.19;99018.44;6231197;27;97175;-73
2022/06/16 01:31:37;;;;;;;;;16.00;15.00;;;;;19.42;54.18;99008.03;6244377;27;97961;-76
2022/06/16 01:34:46;;;;;;;;;18.40;16.40;;;;;19.45;53.82;99010.25;6235084;27;99009;-75
2022/06/16 01:38:01;;;;;;;;;16.50;14.75;;;;;19.44;53.87;99008.63;6241480;27;96791;-76
2022/06/16 01:41:12;;;;;;;;;16.00;15.40;;;;;19.41;54.26;99006.41;6238917;27;97531;-76
2022/06/16 01:44:24;;;;;;;;;15.20;14.00;;;;;19.41;54.12;99005.56;6222982;27;96752;-77
2022/06/16 01:47:32;;;;;;;;;16.00;15.00;;;;;19.40;53.79;99009.44;6245694;27;96626;-73
2022/06/16 01:50:44;;;;;;;;;15.00;14.00;;;;;19.38;53.92;99004.22;6237763;27;96978;-75
2022/06/16 01:53:52;;;;;;;;;15.00;15.00;;;;;19.37;54.52;99005.31;6227769;27;99641;-75
2022/06/16 01:57:01;;;;;;;;;16.00;15.00;;;;;19.32;54.09;98991.66;6244480;27;98293;-73
2022/06/16 02:00:08;;;;;;;;;17.60;14.00;;;;;19.34;54.14;98989.47;6241018;27;96667;-72
2022/06/16 02:03:28;;;;;;;;;15.00;13.25;;;;;19.29;54.46;98994.13;6254965;27;97412;-73
2022/06/16 02:06:35;;;;;;;;;17.40;15.60;;;;;19.28;54.61;98992.50;6241038;27;96790;-73
2022/06/16 02:09:44;;;;;;;;;17.00;15.00;;;;;19.26;54.58;98986.47;6217885;27;99545;-73
2022/06/16 02:12:57;;;;;;;;;14.00;13.20;;;;;19.25;54.64;98984.84;6235915;27;96754;-77
2022/06/16 02:16:25;;;;;;;;;15.00;14.00;;;;;19.24;54.57;98983.19;6260587;27;97359;-77
2022/06/16 02:19:32;;;;;;;;;16.67;15.67;;;;;19.27;54.35;98983.47;6250912;27;96676;-74
2022/06/16 02:22:35;;;;;;;;;15.20;13.20;;;;;19.28;54.65;98992.50;6221239;27;99614;-75
2022/06/16 02:25:38;;;;;;;;;15.50;15.00;;;;;19.24;54.66;98994.97;6235283;27;97400;-77
2022/06/16 02:28:45;;;;;;;;;18.40;16.00;;;;;19.21;54.58;98992.75;6244444;27;96599;-77
2022/06/16 02:31:58;;;;;;;;;16.00;15.00;;;;;19.23;54.75;98996.03;6234695;27;96945;-74
2022/06/16 02:35:23;;;;;;;;;16.50;15.00;;;;;19.29;54.22;98999.59;6239402;27;97447;-76
2022/06/16 02:38:46;;;;;;;;;16.80;15.00;;;;;19.30;54.05;99002.03;6241007;27;98628;-73
2022/06/16 02:42:01;;;;;;;;;18.25;16.75;;;;;19.28;53.86;99000.69;6239287;27;97102;-74
2022/06/16 02:45:13;;;;;;;;;17.00;16.00;;;;;19.25;54.55;99003.97;6255364;27;98129;-77
2022/06/16 02:48:27;;;;;;;;;15.00;13.40;;;;;19.15;54.05;98993.06;6230451;27;96672;-75
2022/06/16 02:51:40;;;;;;;;;16.00;14.50;;;;;19.15;54.41;98990.31;6235013;28;97488;-72
2022/06/16 02:54:55;;;;;;;;;17.00;15.00;;;;;19.08;54.42;98970.63;6242686;27;97689;-76
2022/06/16 02:58:01;;;;;;;;;17.80;15.00;;;;;19.28;54.29;99001.50;6238497;27;97048;-73
2022/06/16 03:01:17;;;;;;;;;15.00;15.00;;;;;19.31;54.61;99000.13;6223514;27;99183;-73
2022/06/16 03:04:21;;;;;;;;;16.60;16.00;;;;;19.35;54.19;99006.72;6226114;27;98775;-76
2022/06/16 03:07:28;;;;;;;;;15.00;14.80;;;;;19.30;54.09;98985.63;6225746;27;96594;-73
2022/06/16 03:10:54;;;;;;;;;12.20;12.20;;;;;19.42;53.67;98999.03;6224306;27;98338;-78
2022/06/16 03:13:58;;;;;;;;;17.00;15.25;;;;;19.42;54.22;98999.84;6256102;27;97631;-72
2022/06/16 03:17:09;;;;;;;;;16.60;16.00;;;;;19.31;53.89;98984.53;6236838;27;96738;-76
2022/06/16 03:20:13;;;;;;;;;16.00;15.00;;;;;19.53;53.73;99003.41;6228701;27;98417;-75
2022/06/16 03:23:19;;;;;;;;;17.00;16.00;;;;;19.57;53.58;99014.59;6246965;27;97465;-72
2022/06/16 03:26:25;;;;;;;;;15.00;14.00;;;;;19.60;53.58;99003.09;6247611;27;100124;-73
2022/06/16 03:29:31;;;;;;;;;16.00;14.00;;;;;19.63;53.52;99002.56;6247653;27;96683;-75
2022/06/16 03:32:36;;;;;;;;;16.00;15.50;;;;;19.68;53.62;99008.03;6226175;27;98053;-73
2022/06/16 03:35:42;;;;;;;;;16.00;15.40;;;;;19.69;53.39;99001.47;6246335;27;97218;-76
2022/06/16 03:38:47;;;;;;;;;17.40;16.40;;;;;19.72;53.18;98993.50;6242239;27;99218;-75
2022/06/16 03:41:52;;;;;;;;;17.00;16.00;;;;;19.74;53.12;98988.56;6228707;27;98703;-76
2022/06/16 03:44:56;;;;;;;;;17.00;16.50;;;;;19.79;53.18;98994.00;6247512;27;97691;-73
2022/06/16 03:48:01;;;;;;;;;17.00;15.00;;;;;19.87;53.64;98993.47;6246686;27;96461;-73
2022/06/16 03:51:05;;;;;;;;;18.00;16.50;;;;;19.95;53.22;98994.78;6242569;27;96920;-78
2022/06/16 03:54:10;;;;;;;;;16.00;14.20;;;;;20.08;52.51;98996.13;6246501;27;97231;-73
2022/06/16 03:57:15;;;;;;;;;19.00;17.80;;;;;20.16;52.25;98990.03;6245568;27;96585;-73
2022/06/16 04:00:20;;;;;;;;;20.00;17.60;;;;;20.23;51.80;98991.34;6220173;27;97724;-74
2022/06/16 04:06:46;;;;;;;;;18.00;16.50;;;;;20.21;51.49;98987.28;6245877;27;97061;-73
2022/06/16 04:09:56;;;;;;;;;17.60;15.00;;;;;20.34;51.45;99000.38;6250403;27;97456;-73
2022/06/16 04:13:01;;;;;;;;;19.25;16.25;;;;;20.35;51.72;98993.81;6264169;27;97234;-72
2022/06/16 04:16:07;;;;;;;;;17.25;17.00;;;;;20.41;51.69;99003.63;6238703;27;97044;-78
2022/06/16 04:19:14;;;;;;;;;19.00;16.25;;;;;20.40;51.78;99001.16;6246701;27;97513;-74
2022/06/16 04:22:18;;;;;;;;;20.00;18.00;;;;;20.39;51.67;99000.34;6229129;27;99024;-74
2022/06/16 04:25:34;;;;;;;;;16.50;15.25;;;;;20.42;51.72;98996.25;6238587;27;97493;-74
2022/06/16 04:28:53;;;;;;;;;18.00;16.00;;;;;20.52;51.97;98996.19;6217134;27;99796;-74
2022/06/16 04:31:59;;;;;;;;;17.00;17.00;;;;;20.57;51.28;98996.16;6220374;28;98982;-74
2022/06/16 04:35:17;;;;;;;;;18.50;17.00;;;;;20.65;51.57;98982.66;6245493;27;97511;-76
2022/06/16 04:38:29;;;;;;;;;17.40;17.00;;;;;20.79;50.57;98982.81;6246082;27;96659;-77
2022/06/16 04:41:36;;;;;;;;;17.20;15.00;;;;;20.95;50.68;98989.81;6225810;27;99019;-75
2022/06/16 04:44:42;;;;;;;;;14.20;14.20;;;;;21.18;50.45;98991.84;6245517;27;98147;-75
2022/06/16 04:47:47;;;;;;;;;16.80;14.40;;;;;21.41;50.10;98984.75;6230068;27;97612;-77
2022/06/16 04:50:52;;;;;;;;;16.20;14.00;;;;;21.59;48.86;98985.97;6229299;27;96983;-74
2022/06/16 04:54:00;;;;;;;;;15.00;14.60;;;;;21.77;48.37;98989.88;6253270;27;97372;-75
2022/06/16 04:57:43;;;;;;;;;14.40;14.00;;;;;21.95;48.40;98989.13;6186611;28;97166;-75
2022/06/16 05:01:22;;;;;;;;;15.00;13.00;;;;;22.12;47.88;98981.22;6119334;28;98210;-77
2022/06/16 05:04:44;;;;;;;;;15.40;14.40;;;;;22.37;47.58;98988.31;6228227;28;99713;-73
2022/06/16 05:08:03;;;;;;;;;14.00;13.60;;;;;22.55;46.79;98992.16;6215302;28;97158;-72
2022/06/16 05:11:42;;;;;;;;;13.20;13.00;;;;;22.67;45.71;98976.06;6160199;28;98322;-76
2022/06/16 05:14:57;;;;;;;;;12.75;11.75;;;;;22.88;45.24;98975.44;6230154;28;97112;-73
2022/06/16 05:18:19;;;;;;;;;15.00;13.00;;;;;23.11;45.08;98976.47;6234486;28;98186;-77
2022/06/16 05:21:43;;;;;;;;;14.00;12.00;;;;;23.27;45.10;98985.22;6205521;28;96989;-77
2022/06/16 05:25:07;;;;;;;;;14.50;13.00;;;;;23.40;43.81;98978.16;6216619;27;96691;-74
2022/06/16 05:28:31;;;;;;;;;12.00;11.00;;;;;23.51;43.81;98977.66;6237972;27;97463;-73
2022/06/16 05:31:59;;;;;;;;;13.00;12.00;;;;;23.72;44.22;98981.66;6221389;27;98210;-73
2022/06/16 05:35:36;;;;;;;;;11.00;10.80;;;;;23.87;43.65;98974.22;6236056;27;96658;-76
2022/06/16 05:38:58;;;;;;;;;12.00;11.00;;;;;24.05;43.20;98976.03;6237944;27;96445;-75
2022/06/16 05:42:18;;;;;;;;;12.20;10.20;;;;;24.21;43.26;98979.31;6219792;28;98379;-77
2022/06/16 05:45:41;;;;;;;;;10.00;10.00;;;;;24.33;43.05;98963.91;6219230;28;97547;-77
2022/06/16 05:48:58;;;;;;;;;12.60;11.60;;;;;24.39;43.02;98957.13;6224984;28;97331;-77
2022/06/16 05:52:07;;;;;;;;;10.80;10.00;;;;;24.65;43.17;98975.84;6244123;27;97632;-77
2022/06/16 05:55:13;;;;;;;;;11.60;11.00;;;;;24.73;42.03;98986.13;6228899;28;97640;-77
2022/06/16 05:58:18;;;;;;;;;11.50;11.00;;;;;24.77;42.01;98954.06;6236170;28;97542;-76
2022/06/16 06:01:30;;;;;;;;;11.00;10.75;;;;;24.85;41.65;98972.59;6223609;28;97557;-72
2022/06/16 06:04:40;;;;;;;;;12.00;11.00;;;;;24.78;42.34;98967.50;6232391;28;97442;-73
2022/06/16 06:17:54;;;;;;;;;11.00;11.00;;;;;25.45;41.95;98959.22;6237143;28;96639;-76
2022/06/16 06:21:00;;;;;;;;;9.00;9.00;;;;;25.67;41.44;98963.88;6233145;28;96582;-73
2022/06/16 06:24:03;;;;;;;;;12.00;11.25;;;;;25.79;40.71;98964.09;6229104;28;97468;-73
2022/06/16 06:27:15;;;;;;;;;10.00;9.33;;;;;25.82;40.70;98963.44;6216821;28;97160;-73
2022/06/16 06:30:21;;;;;;;;;12.00;10.40;;;;;25.98;41.18;98956.34;6230142;28;97654;-76
2022/06/16 06:33:25;;;;;;;;;10.75;10.75;;;;;26.25;41.90;98960.81;6202349;28;97768;-73
2022/06/16 06:36:29;;;;;;;;;12.00;12.00;;;;;26.40;39.82;98963.13;6235436;28;99334;-74
2022/06/16 06:39:33;;;;;;;;;9.00;8.00;;;;;26.46;39.03;98963.78;6234471;28;96933;-73
2022/06/16 06:42:37;;;;;;;;;9.00;9.00;;;;;26.54;39.63;98951.91;6225176;28;97660;-74
2022/06/16 06:45:40;;;;;;;;;9.20;9.00;;;;;26.73;39.94;98955.97;6222371;28;97834;-75
2022/06/16 06:48:44;;;;;;;;;8.00;8.00;;;;;26.84;38.57;98947.34;6232314;28;97205;-76
2022/06/16 06:51:49;;;;;;;;;9.00;9.00;;;;;27.01;38.79;98953.72;6234344;28;97713;-72
2022/06/16 06:54:52;;;;;;;;;9.00;9.00;;;;;27.18;39.34;98950.06;6229168;28;96970;-74
2022/06/16 06:57:56;;;;;;;;;11.00;10.00;;;;;27.25;37.31;98944.03;6229236;28;97703;-75
2022/06/16 07:01:01;;;;;;;;;8.75;8.00;;;;;27.39;38.29;98945.47;6250562;27;97516;-76
2022/06/16 07:04:05;;;;;;;;;11.60;10.00;;;;;27.64;38.57;98934.66;6242595;27;96508;-72
2022/06/16 07:07:14;;;;;;;;;10.00;9.00;;;;;27.88;38.37;98941.22;6236472;27;96506;-73
2022/06/16 07:10:18;;;;;;;;;10.20;9.20;;;;;27.94;36.75;98931.56;6250194;27;96585;-73
2022/06/16 07:13:22;;;;;;;;;8.60;8.60;;;;;28.07;37.53;98926.91;6261284;27;96580;-76
2022/06/16 07:16:25;;;;;;;;;9.20;9.00;;;;;28.28;36.73;98930.56;6242154;27;96733;-78
2022/06/16 07:19:33;;;;;;;;;8.40;7.40;;;;;28.48;35.65;98928.94;6241153;27;99143;-72
2022/06/16 07:22:38;;;;;;;;;10.00;8.40;;;;;28.67;36.12;98932.03;6242254;27;98130;-75
2022/06/16 07:25:41;;;;;;;;;10.00;9.00;;;;;28.79;34.95;98926.56;6242648;27;97685;-73
2022/06/16 07:28:44;;;;;;;;;7.00;7.00;;;;;28.95;33.98;98925.94;6243633;27;98408;-76
2022/06/16 07:31:48;;;;;;;;;8.00;7.00;;;;;28.98;34.25;98905.84;6255040;27;97958;-76
2022/06/16 07:34:51;;;;;;;;;7.00;6.40;;;;;29.09;33.01;98918.91;6236712;27;97629;-73
2022/06/16 07:37:56;;;;;;;;;7.20;6.80;;;;;29.37;33.20;98916.34;6254443;27;96518;-73
2022/06/16 07:44:17;;;;;;;;;6.00;6.00;;;;;29.87;32.80;98907.69;6251552;27;96378;-73
2022/06/16 07:47:21;;;;;;;;;6.75;6.00;;;;;30.08;31.42;98921.50;6238269;27;98737;-77
2022/06/16 07:50:28;;;;;;;;;7.00;6.50;;;;;30.20;31.35;98921.47;6244738;27;96658;-77
2022/06/16 07:53:33;;;;;;;;;5.20;5.20;;;;;30.28;29.63;98914.16;6251136;27;97247;-77
2022/06/16 07:56:36;;;;;;;;;6.00;6.00;;;;;30.43;30.33;98919.00;6214742;27;99708;-73
2022/06/16 07:59:40;;;;;;;;;6.00;6.00;;;;;30.51;29.49;98912.50;6264794;27;96669;-73
2022/06/16 08:02:43;;;;;;;;;5.00;5.00;;;;;30.73;30.08;98911.97;6248585;27;96631;-78
2022/06/16 08:05:47;;;;;;;;;5.80;5.20;;;;;30.65;28.72;98907.34;6246439;27;96838;-74
2022/06/16 08:08:51;;;;;;;;;5.00;5.00;;;;;30.87;29.03;98905.97;6248359;27;96963;-74
2022/06/16 08:12:04;;;;;;;;;5.00;5.00;;;;;31.22;29.32;98911.75;6266919;27;97478;-73
2022/06/16 08:15:09;;;;;;;;;5.00;5.00;;;;;31.53;28.22;98908.97;6252324;27;96835;-75
2022/06/16 08:18:20;;;;;;;;;6.00;5.00;;;;;31.81;27.72;98912.47;6265571;27;96498;-73
2022/06/16 08:21:23;;;;;;;;;6.00;6.00;;;;;31.89;27.83;98910.69;6229453;27;97820;-76
2022/06/16 08:24:28;;;;;;;;;8.00;7.00;;;;;32.00;26.73;98905.34;6251365;27;98027;-74
2022/06/16 08:27:36;;;;;;;;;7.00;6.00;;;;;32.10;26.46;98902.00;6247501;27;97025;-77
2022/06/16 08:30:44;;;;;;;;;6.00;6.00;;;;;32.00;26.59;98903.38;6265300;27;97642;-76
2022/06/16 08:33:49;;;;;;;;;5.50;5.50;;;;;32.20;27.39;98902.28;6265139;27;96549;-74
2022/06/16 08:36:52;;;;;;;;;7.00;6.40;;;;;32.47;26.70;98880.13;6256110;27;97500;-73
2022/06/16 08:39:58;;;;;;;;;5.00;4.00;;;;;32.64;25.94;98902.06;6244388;27;97078;-77
2022/06/16 08:43:06;;;;;;;;;6.00;5.00;;;;;32.85;25.81;98894.09;6252389;27;96543;-76
2022/06/16 08:46:12;;;;;;;;;6.00;6.00;;;;;32.92;25.46;98896.22;6265561;27;97000;-73
2022/06/16 08:49:27;;;;;;;;;6.00;6.00;;;;;33.10;26.00;98895.38;6247145;27;96842;-76
2022/06/16 08:52:40;;;;;;;;;6.20;6.00;;;;;33.30;24.68;98884.97;6265967;27;96486;-78
2022/06/16 08:55:56;;;;;;;;;7.00;6.00;;;;;33.39;25.64;98884.72;6224839;27;97026;-76
2022/06/16 08:59:09;;;;;;;;;6.00;6.00;;;;;33.60;24.40;98889.88;6240475;27;98487;-74
2022/06/16 09:02:19;;;;;;;;;6.00;6.00;;;;;33.77;24.76;98887.38;6247209;27;98440;-78
2022/06/16 09:05:36;;;;;;;;;5.00;5.00;;;;;33.84;23.96;98853.16;6230920;27;98266;-74
2022/06/16 09:08:48;;;;;;;;;7.00;6.00;;;;;33.67;22.83;98898.41;6263858;27;97502;-74
2022/06/16 09:12:05;;;;;;;;;5.00;4.00;;;;;33.86;22.92;98884.34;6246289;27;96814;-76
2022/06/16 09:15:20;;;;;;;;;6.00;5.25;;;;;33.85;22.17;98880.75;6247423;27;96970;-76
2022/06/16 09:18:47;;;;;;;;;5.00;5.00;;;;;33.88;23.26;98865.19;6247461;27;98848;-74
2022/06/16 09:22:01;;;;;;;;;6.00;6.00;;;;;34.13;22.99;98873.94;6265492;27;96298;-74
2022/06/16 09:25:18;;;;;;;;;4.20;4.00;;;;;34.32;22.18;98873.81;6246616;27;96613;-77
2022/06/16 09:28:31;;;;;;;;;5.00;5.00;;;;;34.39;21.53;98839.53;6243923;27;97722;-73
2022/06/16 09:31:41;;;;;;;;;5.00;5.00;;;;;34.73;22.19;98863.59;6258039;27;97395;-76
2022/06/16 09:34:52;;;;;;;;;5.00;5.00;;;;;34.69;21.67;98873.94;6262132;27;97448;-74
2022/06/16 09:38:02;;;;;;;;;4.00;4.00;;;;;34.63;21.02;98867.84;6259046;27;97341;-77
2022/06/16 09:44:42;;;;;;;;;9.80;8.80;;;;;34.52;20.96;98871.69;6262700;27;97191;-74
2022/06/16 09:47:52;;;;;;;;;5.00;5.00;;;;;34.64;21.02;98866.66;6244742;27;96868;-74
2022/06/16 09:51:02;;;;;;;;;9.60;9.00;;;;;34.66;21.43;98864.25;6244375;27;96752;-74
2022/06/16 09:54:11;;;;;;;;;6.00;6.00;;;;;34.70;21.27;98867.13;6245539;27;97364;-73
2022/06/16 09:57:20;;;;;;;;;47.80;39.80;;;;;34.57;21.39;98860.97;6231539;27;98297;-76
2022/06/16 10:00:26;;;;;;;;;13.50;12.00;;;;;34.69;21.30;98866.34;6258602;27;98244;-76
2022/06/16 10:03:34;;;;;;;;;6.60;5.00;;;;;34.87;21.92;98863.75;6239752;27;98602;-74
2022/06/16 10:06:48;;;;;;;;;5.00;5.00;;;;;35.07;21.99;98864.34;6248172;27;97114;-74
2022/06/16 10:10:03;;;;;;;;;5.00;5.00;;;;;34.99;21.25;98843.84;6220276;27;97511;-77
2022/06/16 10:13:17;;;;;;;;;5.80;4.80;;;;;35.41;22.14;98853.88;6264024;27;96653;-77
2022/06/16 10:16:36;;;;;;;;;5.00;5.00;;;;;35.50;20.37;98857.16;6257759;27;97928;-74
2022/06/16 10:19:44;;;;;;;;;25.40;24.40;;;;;35.56;21.19;98855.59;6238758;27;97098;-77
2022/06/16 10:22:52;;;;;;;;;6.00;6.00;;;;;35.28;21.02;98852.56;6243662;27;96775;-74
2022/06/16 10:25:57;;;;;;;;;5.00;5.00;;;;;35.27;21.36;98856.56;6261110;27;96668;-74
2022/06/16 10:29:07;;;;;;;;;4.40;4.40;;;;;35.46;21.43;98854.31;6243243;27;97883;-74
2022/06/16 10:32:17;;;;;;;;;5.00;5.00;;;;;35.67;20.54;98856.53;6260442;27;98509;-77
2022/06/16 10:35:22;;;;;;;;;6.00;6.00;;;;;35.75;19.93;98855.38;6240390;27;96417;-75
2022/06/16 10:38:32;;;;;;;;;6.25;6.00;;;;;35.93;20.08;98850.69;6240367;27;97788;-77
2022/06/16 10:41:41;;;;;;;;;7.00;6.80;;;;;36.03;20.63;98847.13;6239536;27;96547;-75
2022/06/16 10:44:51;;;;;;;;;16.00;15.00;;;;;36.20;20.01;98851.28;6262559;27;96847;-75
2022/06/16 10:48:00;;;;;;;;;5.80;5.80;;;;;36.23;20.24;98858.09;6208367;27;96682;-74
2022/06/16 10:51:10;;;;;;;;;6.00;6.00;;;;;35.90;18.92;98842.25;6262339;27;97555;-76
2022/06/16 10:54:20;;;;;;;;;5.00;5.00;;;;;36.23;20.23;98846.88;6240908;27;97386;-76
2022/06/16 10:57:26;;;;;;;;;4.00;4.00;;;;;36.54;21.03;98834.97;6224277;27;100344;-78
2022/06/16 11:00:33;;;;;;;;;4.00;4.00;;;;;37.03;20.37;98845.56;6258921;27;97683;-77
2022/06/16 11:03:43;;;;;;;;;4.00;4.00;;;;;37.44;19.15;98846.03;6239291;27;97194;-77
2022/06/16 11:06:49;;;;;;;;;6.50;5.50;;;;;37.44;18.61;98833.97;6251974;27;97514;-77
2022/06/16 11:09:53;;;;;;;;;6.00;6.00;;;;;37.35;19.40;98839.19;6240663;27;97297;-78
2022/06/16 11:12:58;;;;;;;;;7.00;6.00;;;;;37.22;18.68;98839.59;6227593;27;97252;-77
2022/06/16 11:16:07;;;;;;;;;6.20;6.00;;;;;36.89;18.93;98828.69;6220158;27;97830;-77
2022/06/16 11:19:24;;;;;;;;;5.00;5.00;;;;;36.70;19.58;98831.84;6241958;27;97043;-74
2022/06/16 11:22:32;;;;;;;;;6.00;6.00;;;;;36.45;19.12;98828.94;6245240;27;97014;-77
2022/06/16 11:25:37;;;;;;;;;7.40;6.40;;;;;36.27;19.18;98830.84;6261094;27;97494;-74
2022/06/16 11:28:43;;;;;;;;;7.00;6.25;;;;;36.23;18.38;98827.22;6225743;27;97822;-77
2022/06/16 11:31:50;;;;;;;;;7.00;7.00;;;;;36.20;18.67;98834.44;6254932;27;97124;-73
2022/06/16 11:34:55;;;;;;;;;4.50;4.00;;;;;36.33;19.71;98823.66;6241283;27;96604;-76
2022/06/16 11:38:06;;;;;;;;;4.00;4.00;;;;;36.33;18.81;98821.66;6240684;27;99494;-77
2022/06/16 11:41:15;;;;;;;;;5.00;5.00;;;;;36.52;19.25;98819.72;6246485;27;98569;-72
2022/06/16 11:44:33;;;;;;;;;12.00;10.00;;;;;36.50;20.06;98822.13;6242215;27;97150;-76
2022/06/16 11:47:46;;;;;;;;;5.00;5.00;;;;;36.53;19.51;98821.31;6264387;27;96729;-73
2022/06/16 11:50:59;;;;;;;;;6.00;6.00;;;;;36.60;19.36;98794.09;6257998;27;96988;-75
2022/06/16 11:54:14;;;;;;;;;7.00;7.00;;;;;37.14;19.05;98806.28;6238402;27;97690;-77
2022/06/16 11:57:27;;;;;;;;;6.00;6.00;;;;;37.60;19.39;98801.44;6243117;27;97363;-73
2022/06/16 12:00:35;;;;;;;;;5.40;5.00;;;;;37.89;18.52;98788.13;6248966;27;97991;-72
2022/06/16 12:04:25;;;;;;;;;6.00;6.00;;;;;37.86;18.90;98794.56;6254938;27;97240;-73
2022/06/16 12:07:48;;;;;;;;;4.00;4.00;;;;;37.97;18.69;98794.53;6258439;27;97234;-76
2022/06/16 12:10:53;;;;;;;;;6.60;5.60;;;;;38.19;18.72;98784.84;6256547;27;97453;-73
2022/06/16 12:14:07;;;;;;;;;6.00;6.00;;;;;38.36;18.51;98777.53;6229497;27;99052;-73
2022/06/16 12:17:18;;;;;;;;;4.20;4.20;;;;;38.58;18.72;98781.84;6238149;27;98681;-76
2022/06/16 12:20:30;;;;;;;;;5.00;5.00;;;;;38.48;17.69;98780.69;6253073;27;96576;-76
2022/06/16 12:23:52;;;;;;;;;5.00;5.00;;;;;38.08;18.45;98767.97;6205056;28;98497;-77
2022/06/16 12:27:00;;;;;;;;;5.00;5.00;;;;;37.61;18.84;98780.56;6261036;27;96592;-72
2022/06/16 12:30:13;;;;;;;;;6.00;6.00;;;;;37.26;18.81;98760.88;6246106;27;98465;-72
2022/06/16 12:33:25;;;;;;;;;6.00;5.40;;;;;36.97;19.30;98754.44;6216454;27;99513;-72
2022/06/16 12:36:35;;;;;;;;;5.00;5.00;;;;;36.42;19.04;98751.09;6263681;27;97089;-74
2022/06/16 12:39:45;;;;;;;;;6.00;6.00;;;;;35.97;19.37;98728.03;6262795;27;97529;-74
2022/06/16 12:42:53;;;;;;;;;5.00;4.40;;;;;35.75;20.54;98729.16;6264948;27;97366;-75
2022/06/16 12:46:03;;;;;;;;;6.00;6.00;;;;;35.81;21.18;98727.59;6250905;27;97454;-72
2022/06/16 12:49:13;;;;;;;;;5.50;5.50;;;;;35.90;20.18;98728.03;6258604;27;97429;-73
2022/06/16 12:52:31;;;;;;;;;6.00;5.00;;;;;36.00;20.23;98716.06;6238275;27;98376;-73
2022/06/16 12:55:40;;;;;;;;;6.00;6.00;;;;;35.98;19.80;98712.81;6258153;27;97573;-72
2022/06/16 12:58:51;;;;;;;;;5.00;5.00;;;;;35.56;20.62;98684.56;6254980;27;96701;-76
2022/06/16 13:01:58;;;;;;;;;5.50;5.00;;;;;35.67;20.32;98707.88;6257569;27;96504;-72
2022/06/16 13:05:09;;;;;;;;;5.00;5.00;;;;;35.41;20.58;98703.28;6264839;27;97466;-73
2022/06/16 13:08:16;;;;;;;;;6.00;5.00;;;;;35.24;20.80;98698.38;6256000;27;97042;-73
2022/06/16 13:11:26;;;;;;;;;5.50;5.50;;;;;34.99;21.30;98681.34;6241152;27;98096;-77
2022/06/16 13:14:33;;;;;;;;;6.00;6.00;;;;;35.03;20.90;98690.59;6232397;27;96999;-76
2022/06/16 13:17:45;;;;;;;;;5.00;5.00;;;;;35.05;21.18;98685.41;6264112;27;96640;-77
2022/06/16 13:20:54;;;;;;;;;7.00;6.00;;;;;34.85;21.83;98647.63;6263616;27;97508;-76
2022/06/16 13:24:04;;;;;;;;;5.00;5.00;;;;;34.87;21.28;98678.06;6245870;27;96961;-76
2022/06/16 13:27:14;;;;;;;;;6.00;5.75;;;;;34.60;21.86;98672.59;6232983;27;97514;-73
2022/06/16 13:30:36;;;;;;;;;6.00;6.00;;;;;34.61;21.55;98654.59;6248968;27;97168;-73
2022/06/16 13:33:46;;;;;;;;;6.00;6.00;;;;;34.77;21.01;98655.19;6264024;27;97035;-73
2022/06/16 13:36:54;;;;;;;;;5.60;5.00;;;;;35.18;20.57;98657.91;6264691;27;96481;-72
2022/06/16 13:40:31;;;;;;;;;5.00;5.00;;;;;35.48;21.81;98652.09;6262021;27;97438;-75
2022/06/16 13:43:37;;;;;;;;;5.00;5.00;;;;;35.50;20.35;98641.25;6228743;27;98350;-76
2022/06/16 13:46:49;;;;;;;;;5.00;5.00;;;;;35.16;20.67;98624.63;6244121;27;97081;-76
2022/06/16 13:50:16;;;;;;;;;5.00;5.00;;;;;35.07;21.67;98628.97;6244555;27;96528;-75
2022/06/16 13:53:24;;;;;;;;;6.00;6.00;;;;;35.15;22.13;98619.41;6229524;27;99674;-75
2022/06/16 13:56:31;;;;;;;;;6.00;6.00;;;;;35.58;21.37;98609.25;6234004;27;96982;-73
2022/06/16 13:59:45;;;;;;;;;6.00;5.00;;;;;35.67;21.21;98589.28;6259791;27;97520;-76
2022/06/16 14:02:58;;;;;;;;;6.40;6.00;;;;;35.59;20.04;98596.81;6253150;27;97622;-73
2022/06/16 14:06:07;;;;;;;;;6.00;5.00;;;;;35.16;20.98;98577.00;6256101;27;96982;-73
2022/06/16 14:09:14;;;;;;;;;5.20;5.20;;;;;35.02;20.91;98573.31;6230034;27;98746;-73
2022/06/16 14:12:22;;;;;;;;;6.00;5.00;;;;;34.65;21.40;98573.44;6256633;27;97491;-76
2022/06/16 14:15:45;;;;;;;;;6.00;6.00;;;;;34.54;20.97;98572.56;6242272;27;97170;-76
2022/06/16 14:19:05;;;;;;;;;7.25;7.00;;;;;34.43;21.13;98561.28;6249696;27;96579;-76
2022/06/16 14:22:12;;;;;;;;;7.00;7.00;;;;;34.20;21.48;98555.09;6232772;27;96427;-72
2022/06/16 14:25:22;;;;;;;;;5.00;5.00;;;;;33.99;21.30;98552.88;6250732;27;97524;-73
2022/06/16 14:28:31;;;;;;;;;6.60;6.00;;;;;33.64;22.31;98539.28;6258987;27;96805;-73
2022/06/16 14:31:40;;;;;;;;;5.00;5.00;;;;;33.62;22.50;98552.06;6261808;27;96849;-72
2022/06/16 14:34:53;;;;;;;;;7.00;7.00;;;;;33.41;22.21;98553.41;6247158;27;98043;-72
2022/06/16 14:38:04;;;;;;;;;7.00;6.00;;;;;33.26;22.66;98550.81;6243920;27;96675;-71
2022/06/16 14:41:15;;;;;;;;;5.25;5.25;;;;;33.12;23.20;98568.16;6262036;27;96440;-72
2022/06/16 14:44:24;;;;;;;;;7.00;7.00;;;;;32.80;24.82;98615.16;6262369;27;97586;-75
2022/06/16 14:47:36;;;;;;;;;7.80;7.00;;;;;32.20;27.20;98647.63;6242792;27;97810;-72
2022/06/16 14:50:44;;;;;;;;;6.00;6.00;;;;;31.25;29.42;98711.28;6244127;27;96582;-74
2022/06/16 14:53:56;;;;;;;;;7.00;7.00;;;;;29.66;40.24;98801.44;6244272;27;96823;-74
2022/06/16 14:57:00;;;;;;;;;5.00;5.00;;;;;28.50;41.10;98806.56;6243881;27;97242;-77
2022/06/16 15:00:06;;;;;;;;;5.00;5.00;;;;;27.15;43.66;98779.97;6229621;28;97692;-73
2022/06/16 15:03:22;;;;;;;;;4.00;4.00;;;;;26.08;47.62;98798.56;6248960;27;96594;-73
2022/06/16 15:06:27;;;;;;;;;6.00;5.00;;;;;25.39;50.16;98795.69;6261708;27;96469;-74
2022/06/16 15:09:35;;;;;;;;;7.00;5.00;;;;;25.17;51.12;98817.84;6262194;27;96647;-74